sensor_id;sensor_type;location;lat;lon;timestamp;temperature;humidity
52799;DHT22;38667;42.872;74.622;2024-02-26T00:00:32;-3.90;80.10
52799;DHT22;38667;42.872;74.622;2024-02-26T00:02:58;-4.00;80.40
52799;DHT22;38667;42.872;74.622;2024-02-26T00:05:25;-3.90;80.80
52799;DHT22;38667;42.872;74.622;2024-02-26T00:07:51;-3.90;80.80
52799;DHT22;38667;42.872;74.622;2024-02-26T00:10:18;-3.90;80.80
52799;DHT22;38667;42.872;74.622;2024-02-26T00:12:44;-3.90;79.90
52799;DHT22;38667;42.872;74.622;2024-02-26T00:15:11;-3.90;80.10
52799;DHT22;38667;42.872;74.622;2024-02-26T00:17:39;-3.90;80.50
52799;DHT22;38667;42.872;74.622;2024-02-26T00:20:07;-3.90;80.50
52799;DHT22;38667;42.872;74.622;2024-02-26T00:22:33;-4.00;80.10
52799;DHT22;38667;42.872;74.622;2024-02-26T00:24:59;-4.10;80.20
52799;DHT22;38667;42.872;74.622;2024-02-26T00:27:26;-4.00;80.70
52799;DHT22;38667;42.872;74.622;2024-02-26T00:29:52;-4.00;81.10
52799;DHT22;38667;42.872;74.622;2024-02-26T00:32:18;-3.90;81.00
52799;DHT22;38667;42.872;74.622;2024-02-26T00:34:46;-3.90;80.80
52799;DHT22;38667;42.872;74.622;2024-02-26T00:37:13;-3.90;81.00
52799;DHT22;38667;42.872;74.622;2024-02-26T00:39:39;-3.90;81.00
52799;DHT22;38667;42.872;74.622;2024-02-26T00:42:05;-3.90;80.70
52799;DHT22;38667;42.872;74.622;2024-02-26T00:44:32;-3.90;80.70
52799;DHT22;38667;42.872;74.622;2024-02-26T00:46:58;-3.90;80.60
52799;DHT22;38667;42.872;74.622;2024-02-26T00:49:24;-3.80;80.60
52799;DHT22;38667;42.872;74.622;2024-02-26T00:51:52;-3.80;80.30
52799;DHT22;38667;42.872;74.622;2024-02-26T00:54:19;-3.80;80.30
52799;DHT22;38667;42.872;74.622;2024-02-26T00:56:45;-3.80;80.30
52799;DHT22;38667;42.872;74.622;2024-02-26T00:59:11;-3.90;79.80
52799;DHT22;38667;42.872;74.622;2024-02-26T01:01:38;-3.90;79.70
52799;DHT22;38667;42.872;74.622;2024-02-26T01:04:04;-3.90;80.20
52799;DHT22;38667;42.872;74.622;2024-02-26T01:06:31;-3.90;80.30
52799;DHT22;38667;42.872;74.622;2024-02-26T01:08:58;-3.90;80.10
52799;DHT22;38667;42.872;74.622;2024-02-26T01:11:25;-3.90;80.20
52799;DHT22;38667;42.872;74.622;2024-02-26T01:13:52;-3.90;80.50
52799;DHT22;38667;42.872;74.622;2024-02-26T01:16:18;-3.90;80.50
52799;DHT22;38667;42.872;74.622;2024-02-26T01:18:44;-3.90;80.60
52799;DHT22;38667;42.872;74.622;2024-02-26T01:21:11;-3.90;80.20
52799;DHT22;38667;42.872;74.622;2024-02-26T01:23:37;-3.90;80.30
52799;DHT22;38667;42.872;74.622;2024-02-26T01:26:05;-3.90;80.50
52799;DHT22;38667;42.872;74.622;2024-02-26T01:28:31;-3.90;80.40
52799;DHT22;38667;42.872;74.622;2024-02-26T01:30:59;-3.90;80.10
52799;DHT22;38667;42.872;74.622;2024-02-26T01:33:26;-3.90;80.00
52799;DHT22;38667;42.872;74.622;2024-02-26T01:35:52;-3.90;79.90
52799;DHT22;38667;42.872;74.622;2024-02-26T01:38:18;-3.90;80.00
52799;DHT22;38667;42.872;74.622;2024-02-26T01:40:45;-4.00;79.80
52799;DHT22;38667;42.872;74.622;2024-02-26T01:43:13;-4.00;79.90
52799;DHT22;38667;42.872;74.622;2024-02-26T01:45:40;-4.00;80.00
52799;DHT22;38667;42.872;74.622;2024-02-26T01:48:07;-4.00;80.00
52799;DHT22;38667;42.872;74.622;2024-02-26T01:50:33;-4.00;80.70
52799;DHT22;38667;42.872;74.622;2024-02-26T01:53:00;-4.00;80.90
52799;DHT22;38667;42.872;74.622;2024-02-26T01:55:27;-4.00;80.90
52799;DHT22;38667;42.872;74.622;2024-02-26T01:57:54;-3.90;80.80
52799;DHT22;38667;42.872;74.622;2024-02-26T02:03:08;-4.00;80.70
52799;DHT22;38667;42.872;74.622;2024-02-26T02:07:47;-4.10;80.30
52799;DHT22;38667;42.872;74.622;2024-02-26T02:10:13;-4.10;80.70
52799;DHT22;38667;42.872;74.622;2024-02-26T02:12:40;-4.10;81.10
52799;DHT22;38667;42.872;74.622;2024-02-26T02:15:07;-4.10;81.20
52799;DHT22;38667;42.872;74.622;2024-02-26T02:17:34;-4.10;80.90
52799;DHT22;38667;42.872;74.622;2024-02-26T02:20:14;-4.00;80.80
52799;DHT22;38667;42.872;74.622;2024-02-26T02:22:42;-4.00;81.60
52799;DHT22;38667;42.872;74.622;2024-02-26T02:25:09;-4.00;80.80
52799;DHT22;38667;42.872;74.622;2024-02-26T02:27:35;-4.10;80.90
52799;DHT22;38667;42.872;74.622;2024-02-26T02:30:02;-4.00;81.30
52799;DHT22;38667;42.872;74.622;2024-02-26T02:32:29;-4.00;80.70
52799;DHT22;38667;42.872;74.622;2024-02-26T02:34:56;-4.00;80.10
52799;DHT22;38667;42.872;74.622;2024-02-26T02:37:23;-4.00;79.60
52799;DHT22;38667;42.872;74.622;2024-02-26T02:39:51;-4.10;79.60
52799;DHT22;38667;42.872;74.622;2024-02-26T02:42:17;-4.00;80.30
52799;DHT22;38667;42.872;74.622;2024-02-26T02:44:43;-3.90;80.10
52799;DHT22;38667;42.872;74.622;2024-02-26T02:47:12;-3.90;80.40
52799;DHT22;38667;42.872;74.622;2024-02-26T02:49:38;-3.90;80.10
52799;DHT22;38667;42.872;74.622;2024-02-26T02:52:05;-3.90;80.30
52799;DHT22;38667;42.872;74.622;2024-02-26T02:54:38;-3.90;80.00
52799;DHT22;38667;42.872;74.622;2024-02-26T02:57:07;-3.90;80.10
52799;DHT22;38667;42.872;74.622;2024-02-26T02:59:33;-3.90;80.10
52799;DHT22;38667;42.872;74.622;2024-02-26T03:01:59;-3.90;79.50
52799;DHT22;38667;42.872;74.622;2024-02-26T03:04:26;-3.90;79.50
52799;DHT22;38667;42.872;74.622;2024-02-26T03:06:52;-3.90;79.80
52799;DHT22;38667;42.872;74.622;2024-02-26T03:09:18;-3.90;79.80
52799;DHT22;38667;42.872;74.622;2024-02-26T03:11:45;-4.00;79.40
52799;DHT22;38667;42.872;74.622;2024-02-26T03:14:13;-3.90;79.80
52799;DHT22;38667;42.872;74.622;2024-02-26T03:16:39;-3.90;79.30
52799;DHT22;38667;42.872;74.622;2024-02-26T03:19:05;-4.00;79.90
52799;DHT22;38667;42.872;74.622;2024-02-26T03:21:34;-4.00;80.80
52799;DHT22;38667;42.872;74.622;2024-02-26T03:24:00;-4.00;80.00
52799;DHT22;38667;42.872;74.622;2024-02-26T03:26:26;-4.10;80.00
52799;DHT22;38667;42.872;74.622;2024-02-26T03:28:53;-4.10;80.90
52799;DHT22;38667;42.872;74.622;2024-02-26T03:31:21;-4.10;80.60
52799;DHT22;38667;42.872;74.622;2024-02-26T03:33:47;-4.10;81.50
52799;DHT22;38667;42.872;74.622;2024-02-26T03:36:13;-4.20;81.00
52799;DHT22;38667;42.872;74.622;2024-02-26T03:38:40;-4.20;81.30
52799;DHT22;38667;42.872;74.622;2024-02-26T03:41:06;-4.10;81.80
52799;DHT22;38667;42.872;74.622;2024-02-26T03:43:32;-4.00;81.40
52799;DHT22;38667;42.872;74.622;2024-02-26T03:45:58;-4.00;81.10
52799;DHT22;38667;42.872;74.622;2024-02-26T03:48:26;-3.90;81.10
52799;DHT22;38667;42.872;74.622;2024-02-26T03:50:53;-3.90;80.70
52799;DHT22;38667;42.872;74.622;2024-02-26T03:53:19;-4.00;80.40
52799;DHT22;38667;42.872;74.622;2024-02-26T03:55:45;-4.00;80.50
52799;DHT22;38667;42.872;74.622;2024-02-26T03:58:13;-4.00;80.60
52799;DHT22;38667;42.872;74.622;2024-02-26T04:00:39;-4.10;80.80
52799;DHT22;38667;42.872;74.622;2024-02-26T04:03:05;-4.00;80.60
52799;DHT22;38667;42.872;74.622;2024-02-26T04:05:33;-4.00;80.60
52799;DHT22;38667;42.872;74.622;2024-02-26T04:08:00;-4.00;80.00
52799;DHT22;38667;42.872;74.622;2024-02-26T04:10:26;-3.90;80.20
52799;DHT22;38667;42.872;74.622;2024-02-26T04:12:52;-3.90;80.10
52799;DHT22;38667;42.872;74.622;2024-02-26T04:15:19;-3.90;79.90
52799;DHT22;38667;42.872;74.622;2024-02-26T04:17:45;-3.80;79.80
52799;DHT22;38667;42.872;74.622;2024-02-26T04:20:14;-3.80;79.50
52799;DHT22;38667;42.872;74.622;2024-02-26T04:22:43;-3.70;79.50
52799;DHT22;38667;42.872;74.622;2024-02-26T04:25:09;-3.70;79.60
52799;DHT22;38667;42.872;74.622;2024-02-26T04:27:36;-3.70;79.00
52799;DHT22;38667;42.872;74.622;2024-02-26T04:30:02;-3.70;79.00
52799;DHT22;38667;42.872;74.622;2024-02-26T04:32:29;-3.70;78.30
52799;DHT22;38667;42.872;74.622;2024-02-26T04:34:55;-3.80;78.30
52799;DHT22;38667;42.872;74.622;2024-02-26T04:37:22;-3.80;78.40
52799;DHT22;38667;42.872;74.622;2024-02-26T04:39:50;-3.80;78.50
52799;DHT22;38667;42.872;74.622;2024-02-26T04:42:17;-3.80;78.30
52799;DHT22;38667;42.872;74.622;2024-02-26T04:44:43;-3.70;78.40
52799;DHT22;38667;42.872;74.622;2024-02-26T04:47:09;-3.70;79.00
52799;DHT22;38667;42.872;74.622;2024-02-26T04:49:36;-3.60;78.60
52799;DHT22;38667;42.872;74.622;2024-02-26T04:52:02;-3.60;78.40
52799;DHT22;38667;42.872;74.622;2024-02-26T04:54:28;-3.60;77.60
52799;DHT22;38667;42.872;74.622;2024-02-26T04:56:56;-3.60;77.30
52799;DHT22;38667;42.872;74.622;2024-02-26T04:59:23;-3.60;77.70
52799;DHT22;38667;42.872;74.622;2024-02-26T05:01:49;-3.60;77.60
52799;DHT22;38667;42.872;74.622;2024-02-26T05:04:15;-3.60;77.20
52799;DHT22;38667;42.872;74.622;2024-02-26T05:06:42;-3.60;77.60
52799;DHT22;38667;42.872;74.622;2024-02-26T05:09:08;-3.60;78.30
52799;DHT22;38667;42.872;74.622;2024-02-26T05:11:34;-3.40;78.40
52799;DHT22;38667;42.872;74.622;2024-02-26T05:14:02;-3.40;77.20
52799;DHT22;38667;42.872;74.622;2024-02-26T05:16:29;-3.40;75.90
52799;DHT22;38667;42.872;74.622;2024-02-26T05:18:55;-3.40;76.00
52799;DHT22;38667;42.872;74.622;2024-02-26T05:21:21;-3.40;76.10
52799;DHT22;38667;42.872;74.622;2024-02-26T05:23:48;-3.50;76.30
52799;DHT22;38667;42.872;74.622;2024-02-26T05:26:20;-3.40;76.50
52799;DHT22;38667;42.872;74.622;2024-02-26T05:28:46;-3.40;76.60
52799;DHT22;38667;42.872;74.622;2024-02-26T05:31:15;-3.40;77.00
52799;DHT22;38667;42.872;74.622;2024-02-26T05:33:41;-3.40;76.20
52799;DHT22;38667;42.872;74.622;2024-02-26T05:36:08;-3.50;76.40
52799;DHT22;38667;42.872;74.622;2024-02-26T05:38:34;-3.50;76.30
52799;DHT22;38667;42.872;74.622;2024-02-26T05:41:01;-3.40;76.30
52799;DHT22;38667;42.872;74.622;2024-02-26T05:43:27;-3.30;76.40
52799;DHT22;38667;42.872;74.622;2024-02-26T05:45:53;-3.30;76.80
52799;DHT22;38667;42.872;74.622;2024-02-26T05:48:22;-3.30;76.20
52799;DHT22;38667;42.872;74.622;2024-02-26T05:50:48;-3.30;76.20
52799;DHT22;38667;42.872;74.622;2024-02-26T05:53:15;-3.30;76.40
52799;DHT22;38667;42.872;74.622;2024-02-26T05:55:41;-3.20;76.20
52799;DHT22;38667;42.872;74.622;2024-02-26T05:58:07;-3.20;75.80
52799;DHT22;38667;42.872;74.622;2024-02-26T06:00:34;-3.30;76.30
52799;DHT22;38667;42.872;74.622;2024-02-26T06:03:00;-3.30;76.30
52799;DHT22;38667;42.872;74.622;2024-02-26T06:05:28;-3.20;76.50
52799;DHT22;38667;42.872;74.622;2024-02-26T06:07:54;-3.10;75.70
52799;DHT22;38667;42.872;74.622;2024-02-26T06:10:21;-3.10;75.20
52799;DHT22;38667;42.872;74.622;2024-02-26T06:12:47;-3.10;75.10
52799;DHT22;38667;42.872;74.622;2024-02-26T06:15:13;-3.00;75.00
52799;DHT22;38667;42.872;74.622;2024-02-26T06:17:40;-3.00;74.20
52799;DHT22;38667;42.872;74.622;2024-02-26T06:20:07;-3.00;74.30
52799;DHT22;38667;42.872;74.622;2024-02-26T06:22:35;-3.00;74.80
52799;DHT22;38667;42.872;74.622;2024-02-26T06:25:01;-3.00;75.30
52799;DHT22;38667;42.872;74.622;2024-02-26T06:27:28;-3.00;75.40
52799;DHT22;38667;42.872;74.622;2024-02-26T06:29:54;-3.00;75.70
52799;DHT22;38667;42.872;74.622;2024-02-26T06:32:20;-3.00;75.60
52799;DHT22;38667;42.872;74.622;2024-02-26T06:34:47;-2.90;75.60
52799;DHT22;38667;42.872;74.622;2024-02-26T06:37:13;-2.90;75.80
52799;DHT22;38667;42.872;74.622;2024-02-26T06:39:41;-2.80;75.50
52799;DHT22;38667;42.872;74.622;2024-02-26T06:42:07;-2.80;74.90
52799;DHT22;38667;42.872;74.622;2024-02-26T06:44:34;-2.80;74.90
52799;DHT22;38667;42.872;74.622;2024-02-26T06:47:00;-2.90;74.60
52799;DHT22;38667;42.872;74.622;2024-02-26T06:49:27;-3.00;75.60
52799;DHT22;38667;42.872;74.622;2024-02-26T06:51:54;-2.90;75.30
52799;DHT22;38667;42.872;74.622;2024-02-26T06:54:20;-2.90;75.50
52799;DHT22;38667;42.872;74.622;2024-02-26T06:56:48;-2.90;75.70
52799;DHT22;38667;42.872;74.622;2024-02-26T06:59:14;-3.00;75.40
52799;DHT22;38667;42.872;74.622;2024-02-26T07:01:41;-2.90;75.90
52799;DHT22;38667;42.872;74.622;2024-02-26T07:04:08;-2.90;75.30
52799;DHT22;38667;42.872;74.622;2024-02-26T07:06:34;-3.00;74.40
52799;DHT22;38667;42.872;74.622;2024-02-26T07:09:00;-3.20;73.70
52799;DHT22;38667;42.872;74.622;2024-02-26T07:11:27;-3.20;74.50
52799;DHT22;38667;42.872;74.622;2024-02-26T07:13:55;-3.20;75.00
52799;DHT22;38667;42.872;74.622;2024-02-26T07:16:21;-3.10;75.40
52799;DHT22;38667;42.872;74.622;2024-02-26T07:18:47;-3.00;75.60
52799;DHT22;38667;42.872;74.622;2024-02-26T07:21:14;-2.80;75.50
52799;DHT22;38667;42.872;74.622;2024-02-26T07:23:40;-2.80;74.10
52799;DHT22;38667;42.872;74.622;2024-02-26T07:26:07;-2.90;74.80
52799;DHT22;38667;42.872;74.622;2024-02-26T07:28:33;-2.80;74.80
52799;DHT22;38667;42.872;74.622;2024-02-26T07:31:01;-2.80;74.80
52799;DHT22;38667;42.872;74.622;2024-02-26T07:33:27;-2.70;74.60
52799;DHT22;38667;42.872;74.622;2024-02-26T07:35:54;-2.70;74.30
52799;DHT22;38667;42.872;74.622;2024-02-26T07:38:20;-2.70;74.10
52799;DHT22;38667;42.872;74.622;2024-02-26T07:40:46;-2.80;75.10
52799;DHT22;38667;42.872;74.622;2024-02-26T07:43:13;-2.80;74.80
52799;DHT22;38667;42.872;74.622;2024-02-26T07:45:39;-2.80;75.10
52799;DHT22;38667;42.872;74.622;2024-02-26T07:48:07;-2.80;75.20
52799;DHT22;38667;42.872;74.622;2024-02-26T07:50:34;-2.80;74.80
52799;DHT22;38667;42.872;74.622;2024-02-26T07:53:00;-2.80;74.60
52799;DHT22;38667;42.872;74.622;2024-02-26T07:55:26;-2.80;75.10
52799;DHT22;38667;42.872;74.622;2024-02-26T07:57:53;-2.70;75.00
52799;DHT22;38667;42.872;74.622;2024-02-26T08:00:20;-2.70;73.90
52799;DHT22;38667;42.872;74.622;2024-02-26T08:02:46;-2.70;73.60
52799;DHT22;38667;42.872;74.622;2024-02-26T08:05:14;-2.70;73.50
52799;DHT22;38667;42.872;74.622;2024-02-26T08:07:40;-2.70;73.50
52799;DHT22;38667;42.872;74.622;2024-02-26T08:10:08;-2.70;73.30
52799;DHT22;38667;42.872;74.622;2024-02-26T08:12:34;-2.80;73.20
52799;DHT22;38667;42.872;74.622;2024-02-26T08:15:00;-2.80;72.90
52799;DHT22;38667;42.872;74.622;2024-02-26T08:17:27;-2.80;73.30
52799;DHT22;38667;42.872;74.622;2024-02-26T08:19:53;-2.80;73.60
52799;DHT22;38667;42.872;74.622;2024-02-26T08:22:21;-2.70;73.90
52799;DHT22;38667;42.872;74.622;2024-02-26T08:24:47;-2.80;73.50
52799;DHT22;38667;42.872;74.622;2024-02-26T08:27:14;-2.80;73.80
52799;DHT22;38667;42.872;74.622;2024-02-26T08:29:40;-2.80;73.90
52799;DHT22;38667;42.872;74.622;2024-02-26T08:32:07;-2.70;73.80
52799;DHT22;38667;42.872;74.622;2024-02-26T08:34:33;-2.70;73.10
52799;DHT22;38667;42.872;74.622;2024-02-26T08:36:59;-2.80;72.30
52799;DHT22;38667;42.872;74.622;2024-02-26T08:39:27;-2.80;72.50
52799;DHT22;38667;42.872;74.622;2024-02-26T08:41:54;-2.80;72.70
52799;DHT22;38667;42.872;74.622;2024-02-26T08:44:20;-2.70;72.90
52799;DHT22;38667;42.872;74.622;2024-02-26T08:46:46;-2.80;72.40
52799;DHT22;38667;42.872;74.622;2024-02-26T08:49:13;-2.90;72.90
52799;DHT22;38667;42.872;74.622;2024-02-26T08:51:42;-2.80;73.00
52799;DHT22;38667;42.872;74.622;2024-02-26T08:54:08;-2.80;73.50
52799;DHT22;38667;42.872;74.622;2024-02-26T08:56:36;-2.80;73.60
52799;DHT22;38667;42.872;74.622;2024-02-26T08:59:02;-2.80;73.90
52799;DHT22;38667;42.872;74.622;2024-02-26T09:01:29;-2.80;74.10
52799;DHT22;38667;42.872;74.622;2024-02-26T09:03:55;-2.80;73.40
52799;DHT22;38667;42.872;74.622;2024-02-26T09:06:21;-2.70;73.40
52799;DHT22;38667;42.872;74.622;2024-02-26T09:08:48;-2.70;72.50
52799;DHT22;38667;42.872;74.622;2024-02-26T09:11:14;-2.70;72.20
52799;DHT22;38667;42.872;74.622;2024-02-26T09:13:42;-2.70;71.50
52799;DHT22;38667;42.872;74.622;2024-02-26T09:16:08;-2.70;71.80
52799;DHT22;38667;42.872;74.622;2024-02-26T09:18:35;-2.70;72.60
52799;DHT22;38667;42.872;74.622;2024-02-26T09:21:04;-2.70;72.40
52799;DHT22;38667;42.872;74.622;2024-02-26T09:23:31;-2.70;72.70
52799;DHT22;38667;42.872;74.622;2024-02-26T09:25:57;-2.70;72.60
52799;DHT22;38667;42.872;74.622;2024-02-26T09:28:24;-2.60;72.10
52799;DHT22;38667;42.872;74.622;2024-02-26T09:30:52;-2.60;72.20
52799;DHT22;38667;42.872;74.622;2024-02-26T09:33:18;-2.60;72.40
52799;DHT22;38667;42.872;74.622;2024-02-26T09:35:44;-2.60;71.50
52799;DHT22;38667;42.872;74.622;2024-02-26T09:38:11;-2.60;71.30
52799;DHT22;38667;42.872;74.622;2024-02-26T09:40:38;-2.60;71.20
52799;DHT22;38667;42.872;74.622;2024-02-26T09:43:05;-2.60;71.90
52799;DHT22;38667;42.872;74.622;2024-02-26T09:45:35;-2.60;71.30
52799;DHT22;38667;42.872;74.622;2024-02-26T09:48:03;-2.60;71.80
52799;DHT22;38667;42.872;74.622;2024-02-26T09:50:30;-2.60;72.00
52799;DHT22;38667;42.872;74.622;2024-02-26T09:52:57;-2.70;70.70
52799;DHT22;38667;42.872;74.622;2024-02-26T09:55:23;-2.80;71.50
52799;DHT22;38667;42.872;74.622;2024-02-26T09:57:51;-2.70;72.20
52799;DHT22;38667;42.872;74.622;2024-02-26T10:00:19;-2.70;72.50
52799;DHT22;38667;42.872;74.622;2024-02-26T10:02:46;-2.70;72.00
52799;DHT22;38667;42.872;74.622;2024-02-26T10:05:16;-2.60;71.70
52799;DHT22;38667;42.872;74.622;2024-02-26T10:07:44;-2.60;72.20
52799;DHT22;38667;42.872;74.622;2024-02-26T10:10:11;-2.60;72.10
52799;DHT22;38667;42.872;74.622;2024-02-26T10:12:37;-2.60;72.10
52799;DHT22;38667;42.872;74.622;2024-02-26T10:15:04;-2.50;71.80
52799;DHT22;38667;42.872;74.622;2024-02-26T10:17:30;-2.60;71.70
52799;DHT22;38667;42.872;74.622;2024-02-26T10:20:11;-2.60;71.60
52799;DHT22;38667;42.872;74.622;2024-02-26T10:22:39;-2.60;71.30
52799;DHT22;38667;42.872;74.622;2024-02-26T10:25:06;-2.70;71.50
52799;DHT22;38667;42.872;74.622;2024-02-26T10:27:32;-2.70;71.50
52799;DHT22;38667;42.872;74.622;2024-02-26T10:29:59;-2.80;71.60
52799;DHT22;38667;42.872;74.622;2024-02-26T10:32:28;-2.80;71.30
52799;DHT22;38667;42.872;74.622;2024-02-26T10:34:56;-2.90;71.40
52799;DHT22;38667;42.872;74.622;2024-02-26T10:37:22;-2.90;71.40
52799;DHT22;38667;42.872;74.622;2024-02-26T10:39:51;-2.90;72.00
52799;DHT22;38667;42.872;74.622;2024-02-26T10:42:17;-3.00;72.80
52799;DHT22;38667;42.872;74.622;2024-02-26T10:44:44;-2.90;72.80
52799;DHT22;38667;42.872;74.622;2024-02-26T10:47:10;-2.90;71.70
52799;DHT22;38667;42.872;74.622;2024-02-26T10:49:37;-2.80;71.50
52799;DHT22;38667;42.872;74.622;2024-02-26T10:52:05;-2.80;71.20
52799;DHT22;38667;42.872;74.622;2024-02-26T10:54:33;-2.90;71.20
52799;DHT22;38667;42.872;74.622;2024-02-26T10:57:01;-2.90;71.80
52799;DHT22;38667;42.872;74.622;2024-02-26T10:59:29;-2.90;71.30
52799;DHT22;38667;42.872;74.622;2024-02-26T11:01:59;-2.90;72.70
52799;DHT22;38667;42.872;74.622;2024-02-26T11:04:26;-3.00;71.50
52799;DHT22;38667;42.872;74.622;2024-02-26T11:06:54;-2.90;72.00
52799;DHT22;38667;42.872;74.622;2024-02-26T11:09:23;-3.00;71.60
52799;DHT22;38667;42.872;74.622;2024-02-26T11:11:50;-2.90;71.70
52799;DHT22;38667;42.872;74.622;2024-02-26T11:14:19;-2.90;71.70
52799;DHT22;38667;42.872;74.622;2024-02-26T11:16:45;-2.90;71.70
52799;DHT22;38667;42.872;74.622;2024-02-26T11:19:12;-2.90;72.40
52799;DHT22;38667;42.872;74.622;2024-02-26T11:21:38;-3.00;72.10
52799;DHT22;38667;42.872;74.622;2024-02-26T11:24:06;-2.90;72.80
52799;DHT22;38667;42.872;74.622;2024-02-26T11:26:34;-2.90;72.60
52799;DHT22;38667;42.872;74.622;2024-02-26T11:29:03;-3.00;71.90
52799;DHT22;38667;42.872;74.622;2024-02-26T11:31:32;-3.00;72.40
52799;DHT22;38667;42.872;74.622;2024-02-26T11:33:59;-3.00;72.40
52799;DHT22;38667;42.872;74.622;2024-02-26T11:36:25;-3.00;72.30
52799;DHT22;38667;42.872;74.622;2024-02-26T11:38:52;-3.00;72.30
52799;DHT22;38667;42.872;74.622;2024-02-26T11:41:18;-3.00;72.70
52799;DHT22;38667;42.872;74.622;2024-02-26T11:43:52;-2.90;72.90
52799;DHT22;38667;42.872;74.622;2024-02-26T11:46:28;-3.00;72.70
52799;DHT22;38667;42.872;74.622;2024-02-26T11:49:01;-3.00;72.50
52799;DHT22;38667;42.872;74.622;2024-02-26T11:51:32;-3.00;72.50
52799;DHT22;38667;42.872;74.622;2024-02-26T11:53:59;-3.00;72.20
52799;DHT22;38667;42.872;74.622;2024-02-26T11:56:25;-3.00;72.80
52799;DHT22;38667;42.872;74.622;2024-02-26T11:59:14;-3.00;72.60
52799;DHT22;38667;42.872;74.622;2024-02-26T12:01:58;-3.00;72.50
52799;DHT22;38667;42.872;74.622;2024-02-26T12:04:27;-3.10;72.40
52799;DHT22;38667;42.872;74.622;2024-02-26T12:06:58;-3.10;72.60
52799;DHT22;38667;42.872;74.622;2024-02-26T12:09:33;-3.10;72.20
52799;DHT22;38667;42.872;74.622;2024-02-26T12:12:01;-3.00;72.30
52799;DHT22;38667;42.872;74.622;2024-02-26T12:14:28;-3.00;71.50
52799;DHT22;38667;42.872;74.622;2024-02-26T12:16:55;-3.10;71.80
52799;DHT22;38667;42.872;74.622;2024-02-26T12:19:22;-3.20;72.10
52799;DHT22;38667;42.872;74.622;2024-02-26T12:21:52;-3.20;72.50
52799;DHT22;38667;42.872;74.622;2024-02-26T12:24:19;-3.20;72.70
52799;DHT22;38667;42.872;74.622;2024-02-26T12:26:45;-3.20;72.80
52799;DHT22;38667;42.872;74.622;2024-02-26T12:29:13;-3.20;74.00
52799;DHT22;38667;42.872;74.622;2024-02-26T12:31:40;-3.30;73.80
52799;DHT22;38667;42.872;74.622;2024-02-26T12:34:07;-3.30;73.80
52799;DHT22;38667;42.872;74.622;2024-02-26T12:36:34;-3.30;74.90
52799;DHT22;38667;42.872;74.622;2024-02-26T12:39:03;-3.30;74.00
52799;DHT22;38667;42.872;74.622;2024-02-26T12:41:29;-3.40;73.90
52799;DHT22;38667;42.872;74.622;2024-02-26T12:43:56;-3.50;74.30
52799;DHT22;38667;42.872;74.622;2024-02-26T12:46:23;-3.40;75.00
52799;DHT22;38667;42.872;74.622;2024-02-26T12:48:49;-3.50;73.80
52799;DHT22;38667;42.872;74.622;2024-02-26T12:51:16;-3.60;74.70
52799;DHT22;38667;42.872;74.622;2024-02-26T12:53:43;-3.50;74.70
52799;DHT22;38667;42.872;74.622;2024-02-26T12:56:12;-3.60;74.10
52799;DHT22;38667;42.872;74.622;2024-02-26T12:58:40;-3.60;73.70
52799;DHT22;38667;42.872;74.622;2024-02-26T13:01:07;-3.60;75.30
52799;DHT22;38667;42.872;74.622;2024-02-26T13:03:35;-3.50;75.20
52799;DHT22;38667;42.872;74.622;2024-02-26T13:06:02;-3.60;74.10
52799;DHT22;38667;42.872;74.622;2024-02-26T13:08:29;-3.60;74.50
52799;DHT22;38667;42.872;74.622;2024-02-26T13:10:55;-3.50;74.50
52799;DHT22;38667;42.872;74.622;2024-02-26T13:13:23;-3.50;74.10
52799;DHT22;38667;42.872;74.622;2024-02-26T13:15:50;-3.50;73.50
52799;DHT22;38667;42.872;74.622;2024-02-26T13:18:16;-3.50;73.90
52799;DHT22;38667;42.872;74.622;2024-02-26T13:20:42;-3.50;73.80
52799;DHT22;38667;42.872;74.622;2024-02-26T13:23:11;-3.60;74.20
52799;DHT22;38667;42.872;74.622;2024-02-26T13:25:38;-3.50;74.00
52799;DHT22;38667;42.872;74.622;2024-02-26T13:28:07;-3.60;73.70
52799;DHT22;38667;42.872;74.622;2024-02-26T13:30:35;-3.60;74.00
52799;DHT22;38667;42.872;74.622;2024-02-26T13:33:08;-3.50;74.60
52799;DHT22;38667;42.872;74.622;2024-02-26T13:35:35;-3.50;74.70
52799;DHT22;38667;42.872;74.622;2024-02-26T13:38:01;-3.50;74.90
52799;DHT22;38667;42.872;74.622;2024-02-26T13:40:28;-3.40;74.60
52799;DHT22;38667;42.872;74.622;2024-02-26T13:42:54;-3.40;74.50
52799;DHT22;38667;42.872;74.622;2024-02-26T13:45:21;-3.40;74.10
52799;DHT22;38667;42.872;74.622;2024-02-26T13:47:49;-3.40;74.70
52799;DHT22;38667;42.872;74.622;2024-02-26T13:50:15;-3.40;74.90
52799;DHT22;38667;42.872;74.622;2024-02-26T13:52:42;-3.30;74.90
52799;DHT22;38667;42.872;74.622;2024-02-26T13:55:08;-3.30;74.40
52799;DHT22;38667;42.872;74.622;2024-02-26T13:57:35;-3.30;74.00
52799;DHT22;38667;42.872;74.622;2024-02-26T14:00:01;-3.30;74.40
52799;DHT22;38667;42.872;74.622;2024-02-26T14:02:27;-3.30;74.60
52799;DHT22;38667;42.872;74.622;2024-02-26T14:04:55;-3.30;74.00
52799;DHT22;38667;42.872;74.622;2024-02-26T14:07:22;-3.30;73.60
52799;DHT22;38667;42.872;74.622;2024-02-26T14:09:48;-3.30;73.60
52799;DHT22;38667;42.872;74.622;2024-02-26T14:12:15;-3.30;73.80
52799;DHT22;38667;42.872;74.622;2024-02-26T14:14:41;-3.30;73.90
52799;DHT22;38667;42.872;74.622;2024-02-26T14:17:07;-3.30;73.90
52799;DHT22;38667;42.872;74.622;2024-02-26T14:19:34;-3.40;73.70
52799;DHT22;38667;42.872;74.622;2024-02-26T14:22:01;-3.40;74.10
52799;DHT22;38667;42.872;74.622;2024-02-26T14:24:28;-3.40;74.50
52799;DHT22;38667;42.872;74.622;2024-02-26T14:26:54;-3.40;73.90
52799;DHT22;38667;42.872;74.622;2024-02-26T14:29:20;-3.40;73.60
52799;DHT22;38667;42.872;74.622;2024-02-26T14:31:48;-3.40;74.00
52799;DHT22;38667;42.872;74.622;2024-02-26T14:34:14;-3.40;74.20
52799;DHT22;38667;42.872;74.622;2024-02-26T14:36:41;-3.40;74.60
52799;DHT22;38667;42.872;74.622;2024-02-26T14:39:09;-3.30;74.80
52799;DHT22;38667;42.872;74.622;2024-02-26T14:41:35;-3.30;74.40
52799;DHT22;38667;42.872;74.622;2024-02-26T14:44:02;-3.30;74.40
52799;DHT22;38667;42.872;74.622;2024-02-26T14:46:28;-3.30;73.90
52799;DHT22;38667;42.872;74.622;2024-02-26T14:48:54;-3.40;73.40
52799;DHT22;38667;42.872;74.622;2024-02-26T14:51:22;-3.40;73.70
52799;DHT22;38667;42.872;74.622;2024-02-26T14:53:48;-3.40;73.90
52799;DHT22;38667;42.872;74.622;2024-02-26T14:56:16;-3.40;73.30
52799;DHT22;38667;42.872;74.622;2024-02-26T14:58:43;-3.50;73.50
52799;DHT22;38667;42.872;74.622;2024-02-26T15:01:09;-3.50;74.10
52799;DHT22;38667;42.872;74.622;2024-02-26T15:03:35;-3.50;73.90
52799;DHT22;38667;42.872;74.622;2024-02-26T15:06:04;-3.50;74.20
52799;DHT22;38667;42.872;74.622;2024-02-26T15:08:31;-3.60;74.10
52799;DHT22;38667;42.872;74.622;2024-02-26T15:10:58;-3.50;74.30
52799;DHT22;38667;42.872;74.622;2024-02-26T15:13:26;-3.60;74.10
52799;DHT22;38667;42.872;74.622;2024-02-26T15:15:52;-3.50;73.90
52799;DHT22;38667;42.872;74.622;2024-02-26T15:18:19;-3.60;73.50